createdAt,value
2023-05-20T00:00:20.412Z,100499.31
2023-05-20T00:01:22.963Z,100506.09
2023-05-20T00:02:25.276Z,100503.89
2023-05-20T00:03:29.049Z,100502.94
2023-05-20T00:04:32.770Z,100504.47
2023-05-20T00:05:35.326Z,100500.31
2023-05-20T00:06:37.480Z,100505.75
2023-05-20T00:07:39.545Z,100506.27
2023-05-20T00:08:42.202Z,100499.16
2023-05-20T00:09:44.726Z,100501.84
2023-05-20T00:10:46.879Z,100501.84
2023-05-20T00:11:49.046Z,100498.97
2023-05-20T00:12:51.218Z,100496.53
2023-05-20T00:13:53.284Z,100493.91
2023-05-20T00:14:56.150Z,100489.16
2023-05-20T00:15:58.554Z,100492.72
2023-05-20T00:17:02.046Z,100487.12
2023-05-20T00:18:04.564Z,100491.19
2023-05-20T00:19:07.006Z,100487.73
2023-05-20T00:20:11.085Z,100491.02
2023-05-20T00:21:13.451Z,100490.00
2023-05-20T00:22:15.714Z,100485.94
2023-05-20T00:23:17.973Z,100489.58
2023-05-20T00:24:20.264Z,100491.02
2023-05-20T00:25:22.518Z,100483.98
2023-05-20T00:26:26.758Z,100479.66
2023-05-20T00:27:30.164Z,100486.80
2023-05-20T00:28:32.305Z,100486.28
2023-05-20T00:29:34.979Z,100489.35
2023-05-20T00:30:40.681Z,100487.66
2023-05-20T00:31:42.917Z,100484.27
2023-05-20T00:32:45.195Z,100482.56
2023-05-20T00:33:47.514Z,100480.71
2023-05-20T00:34:59.423Z,100487.81
2023-05-20T00:36:02.317Z,100487.66
2023-05-20T00:37:05.612Z,100486.12
2023-05-20T00:38:08.053Z,100481.06
2023-05-20T00:39:10.637Z,100490.78
2023-05-20T00:40:15.606Z,100492.67
2023-05-20T00:41:18.638Z,100496.34
2023-05-20T00:42:22.063Z,100486.66
2023-05-20T00:43:26.033Z,100494.59
2023-05-20T00:44:29.102Z,100496.28
2023-05-20T00:45:32.430Z,100492.95
2023-05-20T00:46:36.190Z,100495.45
2023-05-20T00:47:38.889Z,100494.41
2023-05-20T00:48:44.020Z,100488.81
2023-05-20T00:49:50.339Z,100491.28
2023-05-20T00:50:53.961Z,100490.20
2023-05-20T00:51:56.405Z,100493.25
2023-05-20T00:52:59.066Z,100499.66
2023-05-20T00:54:01.621Z,100494.41
2023-05-20T00:55:04.180Z,100490.86
2023-05-20T00:56:08.550Z,100487.98
2023-05-20T00:57:11.738Z,100489.74
2023-05-20T00:58:14.210Z,100496.55
2023-05-20T00:59:16.691Z,100491.05
2023-05-20T01:00:20.023Z,100494.06
2023-05-20T01:01:22.881Z,100488.66
2023-05-20T01:02:26.007Z,100492.05
2023-05-20T01:03:29.803Z,100490.70
2023-05-20T01:04:33.437Z,100482.41
2023-05-20T01:05:36.010Z,100492.72
2023-05-20T01:06:38.815Z,100491.20
2023-05-20T01:07:42.088Z,100495.02
2023-05-20T01:08:44.508Z,100494.76
2023-05-20T01:09:47.321Z,100498.31
2023-05-20T01:10:53.292Z,100498.84
2023-05-20T01:12:05.881Z,100490.52
2023-05-20T01:13:14.673Z,100494.31
2023-05-20T01:14:19.709Z,100487.46
2023-05-20T01:15:25.491Z,100491.53
2023-05-20T01:16:28.918Z,100487.95
2023-05-20T01:17:33.372Z,100490.33
2023-05-20T01:18:41.362Z,100487.46
2023-05-20T01:19:45.813Z,100488.63
2023-05-20T01:20:49.761Z,100479.34
2023-05-20T01:21:53.668Z,100483.14
2023-05-20T01:22:56.972Z,100480.42
2023-05-20T01:24:01.131Z,100480.42
2023-05-20T01:25:04.755Z,100480.42
2023-05-20T01:26:08.506Z,100484.16
2023-05-20T01:27:12.906Z,100488.72
2023-05-20T01:28:17.395Z,100488.72
2023-05-20T01:29:19.616Z,100491.20
2023-05-20T01:30:22.273Z,100480.52
2023-05-20T01:31:28.099Z,100491.88
2023-05-20T01:32:40.614Z,100488.63
2023-05-20T01:33:44.557Z,100478.14
2023-05-20T01:34:49.858Z,100485.66
2023-05-20T01:35:52.733Z,100484.40
2023-05-20T01:36:55.856Z,100493.52
2023-05-20T01:38:00.187Z,100484.64
2023-05-20T01:39:03.273Z,100487.26
2023-05-20T01:40:08.340Z,100488.13
2023-05-20T01:41:11.809Z,100487.11
2023-05-20T01:42:15.712Z,100489.30
2023-05-20T01:43:18.318Z,100484.98
2023-05-20T01:44:21.059Z,100485.56
2023-05-20T01:45:25.086Z,100486.67
2023-05-20T01:46:27.595Z,100489.44
2023-05-20T01:47:30.661Z,100487.50
2023-05-20T01:48:34.541Z,100487.44
2023-05-20T01:49:36.842Z,100488.28
2023-05-20T01:50:39.468Z,100495.81
2023-05-20T01:51:41.875Z,100491.58
2023-05-20T01:52:45.615Z,100489.64
2023-05-20T01:53:49.205Z,100498.28
2023-05-20T01:54:53.969Z,100497.41
2023-05-20T01:55:56.961Z,100491.58
2023-05-20T01:56:59.874Z,100493.34
2023-05-20T01:58:02.822Z,100493.16
2023-05-20T01:59:05.544Z,100492.48
2023-05-20T02:00:09.179Z,100497.58
2023-05-20T02:01:13.528Z,100492.39
2023-05-20T02:02:17.867Z,100495.19
2023-05-20T02:03:20.332Z,100494.66
2023-05-20T02:04:22.779Z,100489.35
2023-05-20T02:05:25.370Z,100502.09
2023-05-20T02:06:27.712Z,100488.04
2023-05-20T02:07:30.637Z,100497.22
2023-05-20T02:08:32.894Z,100493.05
2023-05-20T02:09:35.289Z,100488.72
2023-05-20T02:10:37.533Z,100493.82
2023-05-20T02:11:40.293Z,100494.47
2023-05-20T02:12:43.171Z,100491.16
2023-05-20T02:13:45.515Z,100498.33
2023-05-20T02:14:49.792Z,100501.01
2023-05-20T02:15:52.247Z,100495.71
2023-05-20T02:16:54.974Z,100494.79
2023-05-20T02:17:57.654Z,100504.08
2023-05-20T02:19:01.935Z,100502.75
2023-05-20T02:20:07.131Z,100504.91
2023-05-20T02:21:09.763Z,100503.83
2023-05-20T02:22:14.204Z,100500.20
2023-05-20T02:23:18.724Z,100500.79
2023-05-20T02:24:20.951Z,100499.62
2023-05-20T02:25:23.311Z,100503.98
2023-05-20T02:26:25.821Z,100499.06
2023-05-20T02:27:28.176Z,100507.52
2023-05-20T02:28:30.524Z,100506.52
2023-05-20T02:29:32.770Z,100503.50
2023-05-20T02:30:35.228Z,100507.38
2023-05-20T02:31:38.118Z,100504.66
2023-05-20T02:32:40.217Z,100505.67
2023-05-20T02:33:42.480Z,100501.95
2023-05-20T02:34:45.438Z,100507.20
2023-05-20T02:35:47.701Z,100511.61
2023-05-20T02:36:51.274Z,100503.44
2023-05-20T02:37:53.610Z,100510.51
2023-05-20T02:38:56.259Z,100507.11
2023-05-20T02:39:58.650Z,100510.51
2023-05-20T02:41:02.079Z,100513.19
2023-05-20T02:42:05.178Z,100509.13
2023-05-20T02:43:07.609Z,100511.66
2023-05-20T02:44:10.329Z,100509.56
2023-05-20T02:45:12.580Z,100513.73
2023-05-20T02:46:17.092Z,100513.88
2023-05-20T02:47:19.549Z,100509.64
2023-05-20T02:48:23.107Z,100515.43
2023-05-20T02:49:26.177Z,100515.11
2023-05-20T02:50:28.481Z,100502.93
2023-05-20T02:51:33.785Z,100513.41
2023-05-20T02:52:36.509Z,100508.48
2023-05-20T02:53:39.617Z,100515.75
2023-05-20T02:54:41.957Z,100518.05
2023-05-20T02:55:47.382Z,100516.84
2023-05-20T02:56:49.765Z,100510.68
2023-05-20T02:57:51.994Z,100514.45
2023-05-20T02:58:56.308Z,100511.05
2023-05-20T02:59:58.984Z,100518.27
2023-05-20T03:01:02.041Z,100513.44
2023-05-20T03:02:06.298Z,100516.14
2023-05-20T03:03:10.339Z,100515.97
2023-05-20T03:04:12.787Z,100522.22
2023-05-20T03:05:15.102Z,100523.78
2023-05-20T03:06:18.002Z,100519.92
2023-05-20T03:07:21.164Z,100527.61
2023-05-20T03:08:25.240Z,100524.99
2023-05-20T03:09:27.557Z,100520.61
2023-05-20T03:10:29.814Z,100517.98
2023-05-20T03:11:31.981Z,100523.14
2023-05-20T03:12:34.390Z,100521.61
2023-05-20T03:13:36.842Z,100532.86
2023-05-20T03:14:39.081Z,100531.89
2023-05-20T03:15:47.052Z,100532.58
2023-05-20T03:16:49.525Z,100526.56
2023-05-20T03:17:51.699Z,100526.34
2023-05-20T03:18:54.246Z,100529.83
2023-05-20T03:19:56.670Z,100531.36
2023-05-20T03:20:58.900Z,100531.05
2023-05-20T03:22:01.656Z,100534.73
2023-05-20T03:23:07.513Z,100536.86
2023-05-20T03:24:11.007Z,100537.73
2023-05-20T03:25:13.786Z,100538.43
2023-05-20T03:26:16.427Z,100536.29
2023-05-20T03:27:18.773Z,100544.89
2023-05-20T03:28:21.115Z,100541.91
2023-05-20T03:29:23.448Z,100533.14
2023-05-20T03:30:27.007Z,100543.89
2023-05-20T03:31:30.814Z,100548.91
2023-05-20T03:32:33.062Z,100543.14
2023-05-20T03:33:35.489Z,100539.61
2023-05-20T03:34:38.535Z,100542.92
2023-05-20T03:35:43.605Z,100538.73
2023-05-20T03:36:45.958Z,100542.22
2023-05-20T03:37:48.222Z,100542.36
2023-05-20T03:38:50.788Z,100540.66
2023-05-20T03:39:53.168Z,100533.72
2023-05-20T03:40:56.435Z,100538.91
2023-05-20T03:41:59.717Z,100540.36
2023-05-20T03:43:02.137Z,100540.05
2023-05-20T03:44:05.287Z,100541.66
2023-05-20T03:45:08.765Z,100541.83
2023-05-20T03:46:14.445Z,100533.59
2023-05-20T03:47:17.278Z,100537.34
2023-05-20T03:48:20.022Z,100539.74
2023-05-20T03:49:22.574Z,100538.66
2023-05-20T03:50:25.498Z,100538.83
2023-05-20T03:51:28.059Z,100538.96
2023-05-20T03:52:32.421Z,100540.30
2023-05-20T03:53:35.032Z,100540.22
2023-05-20T03:54:37.309Z,100538.52
2023-05-20T03:55:40.247Z,100541.91
2023-05-20T03:56:42.926Z,100543.89
2023-05-20T03:57:45.577Z,100538.13
2023-05-20T03:58:47.846Z,100541.36
2023-05-20T03:59:50.823Z,100544.84
2023-05-20T04:00:53.342Z,100545.59
2023-05-20T04:01:57.736Z,100547.29
2023-05-20T04:03:00.737Z,100545.59
2023-05-20T04:04:03.800Z,100550.61
2023-05-20T04:05:08.499Z,100545.18
2023-05-20T04:06:11.481Z,100553.65
2023-05-20T04:07:13.752Z,100565.52
2023-05-20T04:08:18.108Z,100559.83
2023-05-20T04:09:20.913Z,100557.20
2023-05-20T04:10:24.626Z,100565.06
2023-05-20T04:11:26.983Z,100562.11
2023-05-20T04:12:31.385Z,100561.28
2023-05-20T04:13:34.110Z,100566.13
2023-05-20T04:14:36.411Z,100572.84
2023-05-20T04:15:38.883Z,100562.98
2023-05-20T04:16:41.266Z,100562.06
2023-05-20T04:17:45.506Z,100563.67
2023-05-20T04:18:48.583Z,100563.81
2023-05-20T04:19:50.856Z,100570.30
2023-05-20T04:20:56.255Z,100563.83
2023-05-20T04:21:58.460Z,100562.42
2023-05-20T04:23:01.020Z,100566.14
2023-05-20T04:24:03.516Z,100566.59
2023-05-20T04:25:07.173Z,100565.76
2023-05-20T04:26:09.979Z,100565.76
2023-05-20T04:27:13.430Z,100565.45
2023-05-20T04:28:15.842Z,100562.42
2023-05-20T04:29:18.596Z,100563.98
2023-05-20T04:30:21.481Z,100560.89
2023-05-20T04:31:27.851Z,100564.30
2023-05-20T04:32:30.316Z,100565.97
2023-05-20T04:33:35.773Z,100565.97
2023-05-20T04:34:38.628Z,100564.12
2023-05-20T04:35:42.324Z,100561.67
2023-05-20T04:36:45.655Z,100571.20
2023-05-20T04:37:48.248Z,100562.20
2023-05-20T04:38:51.455Z,100567.66
2023-05-20T04:39:54.753Z,100572.30
2023-05-20T04:40:57.667Z,100571.20
2023-05-20T04:42:00.145Z,100568.13
2023-05-20T04:43:03.918Z,100572.13
2023-05-20T04:44:06.796Z,100572.45
2023-05-20T04:45:10.210Z,100572.59
2023-05-20T04:46:13.668Z,100579.07
2023-05-20T04:47:16.327Z,100575.95
2023-05-20T04:48:20.394Z,100581.33
2023-05-20T04:49:24.992Z,100576.34
2023-05-20T04:50:28.011Z,100576.08
2023-05-20T04:51:30.451Z,100579.89
2023-05-20T04:52:32.669Z,100568.77
2023-05-20T04:53:36.713Z,100570.56
2023-05-20T04:54:39.819Z,100571.16
2023-05-20T04:55:43.209Z,100575.70
2023-05-20T04:56:46.678Z,100573.25
2023-05-20T04:57:49.251Z,100573.25
2023-05-20T04:58:52.204Z,100573.09
2023-05-20T04:59:56.705Z,100567.52
2023-05-20T05:00:59.109Z,100572.77
2023-05-20T05:02:02.831Z,100570.73
2023-05-20T05:03:07.084Z,100575.67
2023-05-20T05:04:09.532Z,100570.52
2023-05-20T05:05:12.055Z,100566.88
2023-05-20T05:06:15.200Z,100565.80
2023-05-20T05:07:17.391Z,100565.17
2023-05-20T05:08:19.864Z,100561.81
2023-05-20T05:09:24.361Z,100568.58
2023-05-20T05:10:28.076Z,100568.23
2023-05-20T05:11:30.833Z,100565.61
2023-05-20T05:12:33.368Z,100562.84
2023-05-20T05:13:35.796Z,100556.72
2023-05-20T05:14:38.020Z,100555.89
2023-05-20T05:15:40.483Z,100555.30
2023-05-20T05:16:43.285Z,100556.05
2023-05-20T05:17:46.669Z,100560.12
2023-05-20T05:18:49.893Z,100558.94
2023-05-20T05:19:52.469Z,100562.15
2023-05-20T05:21:05.039Z,100556.71
2023-05-20T05:22:08.668Z,100570.36
2023-05-20T05:23:12.317Z,100565.20
2023-05-20T05:24:14.632Z,100560.11
2023-05-20T05:25:16.889Z,100561.28
2023-05-20T05:26:19.237Z,100571.11
2023-05-20T05:27:22.438Z,100576.36
2023-05-20T05:28:25.715Z,100574.34
2023-05-20T05:29:28.064Z,100581.11
2023-05-20T05:30:30.537Z,100575.52
2023-05-20T05:31:33.189Z,100578.72
2023-05-20T05:32:38.625Z,100579.14
2023-05-20T05:33:41.702Z,100578.41
2023-05-20T05:34:45.776Z,100574.50
2023-05-20T05:35:48.498Z,100581.26
2023-05-20T05:36:50.942Z,100574.98
2023-05-20T05:37:54.900Z,100585.67
2023-05-20T05:38:57.686Z,100584.81
2023-05-20T05:40:01.039Z,100584.05
2023-05-20T05:41:03.845Z,100578.73
2023-05-20T05:42:06.369Z,100578.41
2023-05-20T05:43:08.790Z,100581.95
2023-05-20T05:44:11.368Z,100580.61
2023-05-20T05:45:14.378Z,100584.48
2023-05-20T05:46:17.269Z,100581.77
2023-05-20T05:47:19.487Z,100592.62
2023-05-20T05:48:22.798Z,100591.45
2023-05-20T05:49:25.100Z,100584.66
2023-05-20T05:50:29.022Z,100592.38
2023-05-20T05:51:31.564Z,100587.72
2023-05-20T05:52:35.007Z,100590.09
2023-05-20T05:53:37.691Z,100596.17
2023-05-20T05:54:40.332Z,100587.37
2023-05-20T05:55:42.681Z,100584.33
2023-05-20T05:56:45.151Z,100586.19
2023-05-20T05:57:47.914Z,100586.86
2023-05-20T05:58:50.854Z,100586.67
2023-05-20T05:59:53.186Z,100582.77
2023-05-20T06:00:56.038Z,100588.88
2023-05-20T06:01:58.460Z,100588.02
2023-05-20T06:03:00.979Z,100579.21
2023-05-20T06:04:05.553Z,100578.38
2023-05-20T06:05:09.818Z,100573.60
2023-05-20T06:06:12.426Z,100580.55
2023-05-20T06:07:14.785Z,100581.12
2023-05-20T06:08:17.055Z,100575.71
2023-05-20T06:09:20.989Z,100571.39
2023-05-20T06:10:23.574Z,100577.47
2023-05-20T06:11:25.914Z,100578.15
2023-05-20T06:12:28.145Z,100578.91
2023-05-20T06:13:32.782Z,100575.45
2023-05-20T06:14:36.171Z,100581.19
2023-05-20T06:15:40.438Z,100574.83
2023-05-20T06:16:43.382Z,100585.91
2023-05-20T06:17:45.921Z,100579.46
2023-05-20T06:18:50.225Z,100574.91
2023-05-20T06:19:54.608Z,100584.78
2023-05-20T06:20:59.119Z,100585.41
2023-05-20T06:22:01.799Z,100582.78
2023-05-20T06:23:04.361Z,100580.83
2023-05-20T06:24:08.965Z,100574.54
2023-05-20T06:25:12.857Z,100579.59
2023-05-20T06:26:16.065Z,100569.08
2023-05-20T06:27:18.214Z,100573.67
2023-05-20T06:28:20.772Z,100576.23
2023-05-20T06:29:23.744Z,100579.59
2023-05-20T06:30:26.136Z,100570.67
2023-05-20T06:31:30.348Z,100570.61
2023-05-20T06:32:33.066Z,100575.67
2023-05-20T06:33:36.176Z,100573.70
2023-05-20T06:34:40.475Z,100574.64
2023-05-20T06:35:44.138Z,100574.47
2023-05-20T06:36:47.038Z,100574.27
2023-05-20T06:37:50.349Z,100583.68
2023-05-20T06:38:52.759Z,100580.92
2023-05-20T06:39:56.004Z,100584.32
2023-05-20T06:40:58.576Z,100579.63
2023-05-20T06:42:00.908Z,100576.63
2023-05-20T06:43:05.110Z,100579.08
2023-05-20T06:44:21.176Z,100573.45
2023-05-20T06:45:31.527Z,100576.47
2023-05-20T06:46:35.801Z,100571.55
2023-05-20T06:47:41.092Z,100576.27
2023-05-20T06:48:44.360Z,100581.34
2023-05-20T06:49:47.772Z,100579.27
2023-05-20T06:50:51.640Z,100575.49
2023-05-20T06:51:54.222Z,100572.79
2023-05-20T06:52:56.785Z,100575.87
2023-05-20T06:53:59.056Z,100571.36
2023-05-20T06:55:01.696Z,100573.06
2023-05-20T06:56:04.479Z,100569.45
2023-05-20T06:57:08.476Z,100569.28
2023-05-20T06:58:11.933Z,100573.61
2023-05-20T06:59:14.960Z,100568.34
2023-05-20T07:00:18.805Z,100568.23
2023-05-20T07:01:21.478Z,100579.17
2023-05-20T07:02:25.178Z,100572.31
2023-05-20T07:03:28.562Z,100570.97
2023-05-20T07:04:31.816Z,100562.71
2023-05-20T07:05:35.215Z,100568.36
2023-05-20T07:06:37.864Z,100571.27
2023-05-20T07:07:40.315Z,100572.14
2023-05-20T07:08:43.638Z,100571.75
2023-05-20T07:09:46.624Z,100566.10
2023-05-20T07:10:49.219Z,100565.71
2023-05-20T07:11:53.425Z,100566.26
2023-05-20T07:12:57.258Z,100591.28
2023-05-20T07:14:00.691Z,100575.78
2023-05-20T07:15:06.792Z,100574.66
2023-05-20T07:16:09.727Z,100575.95
2023-05-20T07:17:13.669Z,100568.70
2023-05-20T07:18:17.178Z,100579.78
2023-05-20T07:19:21.656Z,100575.06
2023-05-20T07:20:24.013Z,100578.23
2023-05-20T07:21:26.742Z,100578.70
2023-05-20T07:23:56.135Z,100580.23
2023-05-20T07:24:59.768Z,100586.84
2023-05-20T07:26:02.710Z,100571.47
2023-05-20T07:27:05.406Z,100569.58
2023-05-20T07:28:07.951Z,100563.27
2023-05-20T07:29:10.732Z,100573.16
2023-05-20T07:30:14.627Z,100569.58
2023-05-20T07:31:18.795Z,100572.11
2023-05-20T07:32:21.719Z,100571.81
2023-05-20T07:33:24.176Z,100586.38
2023-05-20T07:34:27.494Z,100582.70
2023-05-20T07:35:30.362Z,100571.81
2023-05-20T07:36:32.884Z,100582.46
2023-05-20T07:37:36.989Z,100583.22
2023-05-20T07:38:41.037Z,100574.91
2023-05-20T07:39:44.385Z,100577.13
2023-05-20T07:40:47.058Z,100569.97
2023-05-20T07:41:50.653Z,100582.52
2023-05-20T07:42:53.093Z,100580.25
2023-05-20T07:43:55.557Z,100586.05
2023-05-20T07:44:57.686Z,100578.06
2023-05-20T07:46:00.787Z,100581.53
2023-05-20T07:47:03.482Z,100583.86
2023-05-20T07:48:07.861Z,100583.55
2023-05-20T07:49:11.666Z,100577.42
2023-05-20T07:50:15.679Z,100564.87
2023-05-20T07:51:18.456Z,100572.25
2023-05-20T07:52:20.928Z,100584.83
2023-05-20T07:53:23.983Z,100574.14
2023-05-20T07:54:27.111Z,100579.00
2023-05-20T07:55:30.892Z,100568.53
2023-05-20T07:56:33.807Z,100577.42
2023-05-20T07:57:36.445Z,100580.06
2023-05-20T07:58:41.415Z,100565.70
2023-05-20T07:59:44.432Z,100576.47
2023-05-20T08:00:47.603Z,100570.14
2023-05-20T08:01:49.915Z,100570.66
2023-05-20T08:02:54.657Z,100572.68
2023-05-20T08:03:59.285Z,100568.67
2023-05-20T08:05:02.081Z,100564.86
2023-05-20T08:06:05.471Z,100559.37
2023-05-20T08:07:08.204Z,100559.78
2023-05-20T08:08:12.544Z,100572.58
2023-05-20T08:09:16.664Z,100564.42
2023-05-20T08:10:20.900Z,100582.90
2023-05-20T08:11:23.493Z,100579.63
2023-05-20T08:12:26.074Z,100570.77
2023-05-20T08:13:28.666Z,100566.23
2023-05-20T08:14:31.734Z,100571.28
2023-05-20T08:15:36.304Z,100570.56
2023-05-20T08:16:40.049Z,100565.88
2023-05-20T08:17:42.552Z,100564.62
2023-05-20T08:18:45.577Z,100563.16
2023-05-20T08:19:48.256Z,100569.06
2023-05-20T08:20:51.738Z,100572.42
2023-05-20T08:21:54.200Z,100566.52
2023-05-20T08:22:57.280Z,100566.52
2023-05-20T08:24:00.269Z,100573.67
2023-05-20T08:25:04.097Z,100577.92
2023-05-20T08:26:07.297Z,100568.63
2023-05-20T08:27:09.894Z,100565.44
2023-05-20T08:28:12.428Z,100572.29
2023-05-20T08:29:15.148Z,100564.28
2023-05-20T08:30:18.225Z,100555.41
2023-05-20T08:31:20.700Z,100562.50
2023-05-20T08:32:23.015Z,100572.00
2023-05-20T08:33:26.019Z,100559.54
2023-05-20T08:34:28.238Z,100560.16
2023-05-20T08:35:31.699Z,100560.99
2023-05-20T08:36:35.267Z,100561.62
2023-05-20T08:37:38.835Z,100567.97
2023-05-20T08:38:42.396Z,100558.59
2023-05-20T08:39:46.216Z,100561.73
2023-05-20T08:40:55.962Z,100554.02
2023-05-20T08:41:59.827Z,100556.45
2023-05-20T08:43:02.656Z,100561.62
2023-05-20T08:44:05.748Z,100554.64
2023-05-20T08:45:11.249Z,100553.37
2023-05-20T08:46:16.902Z,100558.83
2023-05-20T08:47:21.915Z,100557.55
2023-05-20T08:48:27.315Z,100557.92
2023-05-20T08:49:30.476Z,100558.55
2023-05-20T08:50:33.526Z,100557.26
2023-05-20T08:51:37.318Z,100557.88
2023-05-20T08:52:46.161Z,100548.50
2023-05-20T08:53:50.302Z,100554.04
2023-05-20T08:54:53.722Z,100563.90
2023-05-20T08:56:01.366Z,100556.92
2023-05-20T08:57:05.329Z,100556.92
2023-05-20T08:58:08.588Z,100557.62
2023-05-20T08:59:11.553Z,100560.39
2023-05-20T09:00:16.438Z,100563.90
2023-05-20T09:01:22.451Z,100564.39
2023-05-20T09:02:26.023Z,100558.25
2023-05-20T09:03:29.640Z,100547.46
2023-05-20T09:04:33.855Z,100560.34
2023-05-20T09:05:36.916Z,100556.50
2023-05-20T09:06:44.303Z,100554.81
2023-05-20T09:07:46.939Z,100551.34
2023-05-20T09:08:50.794Z,100547.97
2023-05-20T09:09:53.574Z,100545.50
2023-05-20T09:10:56.132Z,100554.61
2023-05-20T09:11:59.662Z,100558.25
2023-05-20T09:13:03.710Z,100559.61
2023-05-20T09:14:06.742Z,100567.21
2023-05-20T09:15:09.488Z,100557.88
2023-05-20T09:16:12.913Z,100559.94
2023-05-20T09:17:18.266Z,100554.31
2023-05-20T09:18:20.905Z,100561.42
2023-05-20T09:19:25.837Z,100557.73
2023-05-20T09:20:29.415Z,100557.52
2023-05-20T09:21:32.488Z,100565.20
2023-05-20T09:22:35.068Z,100554.75
2023-05-20T09:23:38.678Z,100554.26
2023-05-20T09:24:41.987Z,100557.73
2023-05-20T09:25:44.278Z,100549.06
2023-05-20T09:26:47.363Z,100551.95
2023-05-20T09:27:50.197Z,100555.83
2023-05-20T09:28:53.250Z,100558.95
2023-05-20T09:29:57.192Z,100559.38
2023-05-20T09:31:01.097Z,100554.58
2023-05-20T09:32:05.082Z,100559.14
2023-05-20T09:33:08.731Z,100563.59
2023-05-20T09:34:11.772Z,100559.53
2023-05-20T09:35:16.287Z,100561.83
2023-05-20T09:36:21.390Z,100560.84
2023-05-20T09:37:25.941Z,100550.17
2023-05-20T09:38:32.496Z,100554.12
2023-05-20T09:39:38.873Z,100552.95
2023-05-20T09:40:44.314Z,100555.13
2023-05-20T09:41:52.277Z,100551.88
2023-05-20T09:42:59.267Z,100545.75
2023-05-20T09:44:03.765Z,100537.08
2023-05-20T09:45:08.961Z,100552.83
2023-05-20T09:46:11.418Z,100553.56
2023-05-20T09:47:16.644Z,100549.96
2023-05-20T09:48:19.404Z,100555.25
2023-05-20T09:49:23.322Z,100553.34
2023-05-20T09:50:26.956Z,100561.28
2023-05-20T09:51:31.901Z,100554.07
2023-05-20T09:52:43.773Z,100552.13
2023-05-20T09:53:47.626Z,100546.61
2023-05-20T09:54:51.063Z,100547.81
2023-05-20T09:55:54.372Z,100553.58
2023-05-20T09:57:08.678Z,100554.17
2023-05-20T09:58:16.109Z,100552.36
2023-05-20T09:59:22.594Z,100542.77
2023-05-20T10:00:25.572Z,100544.20
2023-05-20T10:01:29.120Z,100547.34
2023-05-20T10:02:34.502Z,100540.95
2023-05-20T10:03:37.924Z,100548.80
2023-05-20T10:04:44.638Z,100557.83
2023-05-20T10:06:06.827Z,100551.18
2023-05-20T10:07:38.017Z,100549.00
2023-05-20T10:08:46.039Z,100542.05
2023-05-20T10:09:58.399Z,100541.08
2023-05-20T10:11:14.243Z,100547.06
2023-05-20T10:12:23.131Z,100547.19
2023-05-20T10:13:44.846Z,100542.76
2023-05-20T10:15:03.478Z,100536.13
2023-05-20T10:16:31.068Z,100544.43
2023-05-20T10:17:46.330Z,100538.91
2023-05-20T10:19:10.088Z,100536.05
2023-05-20T10:20:14.967Z,100540.85
2023-05-20T10:21:21.510Z,100536.98
2023-05-20T10:22:32.448Z,100540.09
2023-05-20T10:23:36.204Z,100532.41
2023-05-20T10:24:44.935Z,100538.90
2023-05-20T10:25:54.091Z,100543.47
2023-05-20T10:26:58.538Z,100535.52
2023-05-20T10:28:08.067Z,100531.19
2023-05-20T10:29:22.561Z,100538.41
2023-05-20T10:30:25.113Z,100530.36
2023-05-20T10:31:27.749Z,100530.34
2023-05-20T10:32:32.459Z,100530.02
2023-05-20T10:33:38.666Z,100530.48
2023-05-20T10:34:48.478Z,100528.57
2023-05-20T10:35:54.295Z,100532.05
2023-05-20T10:36:58.894Z,100530.36
2023-05-20T10:38:11.875Z,100533.84
2023-05-20T10:39:17.223Z,100530.95
2023-05-20T10:40:22.120Z,100539.83
2023-05-20T10:41:28.578Z,100534.52
2023-05-20T10:42:31.805Z,100532.70
2023-05-20T10:43:34.250Z,100531.15
2023-05-20T10:44:47.127Z,100536.45
2023-05-20T10:45:53.093Z,100531.87
2023-05-20T10:47:23.583Z,100539.05
2023-05-20T10:48:08.181Z,100534.02
2023-05-20T10:49:22.439Z,100535.29
2023-05-20T10:51:43.421Z,100531.66
2023-05-20T10:52:45.988Z,100520.98
2023-05-20T10:53:52.140Z,100523.05
2023-05-20T10:54:57.688Z,100531.20
2023-05-20T10:56:00.077Z,100534.61
2023-05-20T10:57:11.108Z,100524.73
2023-05-20T10:58:15.422Z,100524.73
2023-05-20T10:59:18.180Z,100517.50
2023-05-20T11:00:21.154Z,100521.56
2023-05-20T11:01:26.237Z,100530.83
2023-05-20T11:02:28.988Z,100526.31
2023-05-20T11:03:32.836Z,100529.41
2023-05-20T11:04:36.650Z,100535.73
2023-05-20T11:05:40.124Z,100529.33
2023-05-20T11:06:53.249Z,100528.64
2023-05-20T11:08:16.821Z,100526.77
2023-05-20T11:09:12.382Z,100521.44
2023-05-20T11:10:15.322Z,100518.89
2023-05-20T11:11:17.654Z,100522.59
2023-05-20T11:12:22.161Z,100516.59
2023-05-20T11:13:24.907Z,100521.22
2023-05-20T11:14:30.794Z,100519.57
2023-05-20T11:15:36.099Z,100521.14
2023-05-20T11:16:38.834Z,100520.74
2023-05-20T11:17:55.672Z,100520.22
2023-05-20T11:19:00.330Z,100522.16
2023-05-20T11:20:04.634Z,100516.69
2023-05-20T11:21:07.500Z,100515.45
2023-05-20T11:22:10.348Z,100522.56
2023-05-20T11:23:14.703Z,100519.34
2023-05-20T11:24:26.949Z,100515.55
2023-05-20T11:25:29.982Z,100519.93
2023-05-20T11:26:32.789Z,100515.14
2023-05-20T11:27:41.071Z,100518.37
2023-05-20T11:28:43.724Z,100527.93
2023-05-20T11:29:49.830Z,100518.56
2023-05-20T11:30:52.817Z,100522.73
2023-05-20T11:31:55.378Z,100531.59
2023-05-20T11:33:00.804Z,100530.25
2023-05-20T11:34:03.745Z,100528.61
2023-05-20T11:35:08.493Z,100520.51
2023-05-20T11:36:23.858Z,100520.86
2023-05-20T11:37:19.579Z,100515.84
2023-05-20T11:38:22.338Z,100525.05
2023-05-20T11:39:26.862Z,100516.93
2023-05-20T11:40:38.981Z,100521.72
2023-05-20T11:41:36.199Z,100515.80
2023-05-20T11:42:38.548Z,100520.44
2023-05-20T11:43:42.205Z,100515.81
2023-05-20T11:44:45.923Z,100519.53
2023-05-20T11:45:54.815Z,100514.52
2023-05-20T11:47:02.696Z,100514.41
2023-05-20T11:48:06.526Z,100519.02
2023-05-20T11:49:09.172Z,100511.34
2023-05-20T11:50:18.630Z,100508.26
2023-05-20T11:51:28.465Z,100505.87
2023-05-20T11:52:34.492Z,100517.94
2023-05-20T11:53:40.639Z,100514.72
2023-05-20T11:54:43.366Z,100511.06
2023-05-20T11:55:58.046Z,100504.31
2023-05-20T11:57:00.744Z,100513.71
2023-05-20T11:58:03.420Z,100517.17
2023-05-20T11:59:08.937Z,100518.14
2023-05-20T12:00:13.253Z,100511.56
2023-05-20T12:01:22.520Z,100506.25
2023-05-20T12:02:20.383Z,100510.07
2023-05-20T12:03:23.029Z,100514.16
2023-05-20T12:04:25.560Z,100507.41
2023-05-20T12:05:28.061Z,100512.31
2023-05-20T12:06:31.019Z,100509.52
2023-05-20T12:07:33.375Z,100496.63
2023-05-20T12:08:36.149Z,100506.44
2023-05-20T12:09:38.370Z,100506.59
2023-05-20T12:10:40.734Z,100502.38
2023-05-20T12:11:44.601Z,100487.24
2023-05-20T12:12:47.045Z,100508.20